createdAt,value
2018-05-15T00:01:30.359Z,13.50
2018-05-15T00:03:57.975Z,13.49
2018-05-15T00:06:25.686Z,13.48
2018-05-15T00:08:53.298Z,13.46
2018-05-15T00:11:21.706Z,13.43
2018-05-15T00:13:49.387Z,13.39
2018-05-15T00:16:17.031Z,13.36
2018-05-15T00:18:44.710Z,13.33
2018-05-15T00:21:12.374Z,13.31
2018-05-15T00:23:40.036Z,13.30
2018-05-15T00:26:07.679Z,13.30
2018-05-15T00:28:35.297Z,13.30
2018-05-15T00:31:02.935Z,13.28
2018-05-15T00:33:30.548Z,13.28
2018-05-15T00:35:58.247Z,13.26
2018-05-15T00:38:25.862Z,13.22
2018-05-15T00:40:53.503Z,13.19
2018-05-15T00:43:21.124Z,13.17
2018-05-15T00:45:48.779Z,13.15
2018-05-15T00:48:16.403Z,13.12
2018-05-15T00:50:44.019Z,13.11
2018-05-15T00:53:11.659Z,13.09
2018-05-15T00:55:44.996Z,13.07
2018-05-15T00:58:12.638Z,13.05
2018-05-15T01:00:40.295Z,13.02
2018-05-15T01:03:07.958Z,13.00
2018-05-15T01:05:35.633Z,12.97
2018-05-15T01:08:03.385Z,12.94
2018-05-15T01:10:31.051Z,12.87
2018-05-15T01:12:58.691Z,12.80
2018-05-15T01:15:26.307Z,12.75
2018-05-15T01:17:53.958Z,12.71
2018-05-15T01:20:21.574Z,12.69
2018-05-15T01:22:49.211Z,12.66
2018-05-15T01:25:16.918Z,12.62
2018-05-15T01:27:44.555Z,12.59
2018-05-15T01:30:12.174Z,12.54
2018-05-15T01:32:39.910Z,12.49
2018-05-15T01:35:07.575Z,12.46
2018-05-15T01:37:35.214Z,12.42
2018-05-15T01:40:02.845Z,12.39
2018-05-15T01:42:30.563Z,12.36
2018-05-15T01:44:58.178Z,12.33
2018-05-15T01:47:25.886Z,12.31
2018-05-15T01:49:53.502Z,12.28
2018-05-15T01:52:21.210Z,12.27
2018-05-15T01:54:48.823Z,12.25
2018-05-15T01:57:16.530Z,12.24
2018-05-15T01:59:44.142Z,12.23
2018-05-15T02:02:11.795Z,12.21
2018-05-15T02:04:39.410Z,12.20
2018-05-15T02:07:07.083Z,12.19
2018-05-15T02:09:34.723Z,12.16
2018-05-15T02:12:02.338Z,12.13
2018-05-15T02:14:29.974Z,12.10
2018-05-15T02:16:57.630Z,12.09
2018-05-15T02:19:25.270Z,12.07
2018-05-15T02:21:52.955Z,12.04
2018-05-15T02:24:20.620Z,12.01
2018-05-15T02:26:48.236Z,11.98
2018-05-15T02:29:15.874Z,11.97
2018-05-15T02:31:43.492Z,11.94
2018-05-15T02:34:11.163Z,11.91
2018-05-15T02:36:38.826Z,11.87
2018-05-15T02:39:06.584Z,11.82
2018-05-15T02:41:34.206Z,11.76
2018-05-15T02:44:01.850Z,11.70
2018-05-15T02:46:29.469Z,11.64
2018-05-15T02:48:57.146Z,11.58
2018-05-15T02:51:24.771Z,11.55
2018-05-15T02:53:52.467Z,11.53
2018-05-15T02:56:20.127Z,11.49
2018-05-15T02:58:47.772Z,11.48
2018-05-15T03:01:15.387Z,11.45
2018-05-15T03:03:43.023Z,11.43
2018-05-15T03:06:10.638Z,11.39
2018-05-15T03:08:38.290Z,11.35
2018-05-15T03:11:05.907Z,11.33
2018-05-15T03:13:33.550Z,11.31
2018-05-15T03:16:01.223Z,11.29
2018-05-15T03:18:28.838Z,11.28
2018-05-15T03:20:56.478Z,11.29
2018-05-15T03:23:24.092Z,11.29
2018-05-15T03:25:51.740Z,11.29
2018-05-15T03:28:19.431Z,11.29
2018-05-15T03:30:47.075Z,11.30
2018-05-15T03:33:14.754Z,11.30
2018-05-15T03:35:42.422Z,11.30
2018-05-15T03:38:10.035Z,11.32
2018-05-15T03:40:37.675Z,11.33
2018-05-15T03:43:05.291Z,11.34
2018-05-15T03:45:32.931Z,11.33
2018-05-15T03:48:00.551Z,11.33
2018-05-15T03:50:28.187Z,11.32
2018-05-15T03:52:55.852Z,11.33
2018-05-15T03:55:23.515Z,11.34
2018-05-15T03:57:51.179Z,11.34
2018-05-15T04:00:30.438Z,11.35
2018-05-15T04:03:09.951Z,11.40
2018-05-15T04:05:49.390Z,11.46
2018-05-15T04:08:17.006Z,11.56
2018-05-15T04:10:44.648Z,11.69
2018-05-15T04:13:14.015Z,11.85
2018-05-15T04:15:41.668Z,12.01
2018-05-15T04:18:09.291Z,12.22
2018-05-15T04:20:37.006Z,12.46
2018-05-15T04:23:04.667Z,12.70
2018-05-15T04:25:32.307Z,12.89
2018-05-15T04:28:00.083Z,13.03
2018-05-15T04:30:27.755Z,13.16
2018-05-15T04:32:55.374Z,13.25
2018-05-15T04:35:23.048Z,13.35
2018-05-15T04:37:50.742Z,13.40
2018-05-15T04:40:18.406Z,13.38
2018-05-15T04:42:46.046Z,13.38
2018-05-15T04:45:13.674Z,13.38
2018-05-15T04:47:41.385Z,13.38
2018-05-15T04:50:08.999Z,13.41
2018-05-15T04:52:36.639Z,13.45
2018-05-15T04:55:04.259Z,13.51
2018-05-15T04:57:31.902Z,13.56
2018-05-15T04:59:59.519Z,13.63
2018-05-15T05:02:27.166Z,13.71
2018-05-15T05:04:54.790Z,13.80
2018-05-15T05:07:22.431Z,13.86
2018-05-15T05:09:50.046Z,13.94
2018-05-15T05:12:17.719Z,13.99
2018-05-15T05:14:45.335Z,14.07
2018-05-15T05:17:13.029Z,14.15
2018-05-15T05:19:40.710Z,14.27
2018-05-15T05:22:08.462Z,14.37
2018-05-15T05:24:36.078Z,14.47
2018-05-15T05:27:03.732Z,14.55
2018-05-15T05:29:31.359Z,14.62
2018-05-15T05:31:59.005Z,14.65
2018-05-15T05:34:26.679Z,14.69
2018-05-15T05:36:54.315Z,14.74
2018-05-15T05:39:21.930Z,14.77
2018-05-15T05:41:49.567Z,14.78
2018-05-15T05:44:17.222Z,14.83
2018-05-15T05:46:44.883Z,14.90
2018-05-15T05:49:12.557Z,15.02
2018-05-15T05:51:40.210Z,15.15
2018-05-15T05:54:07.871Z,15.27
2018-05-15T05:56:35.628Z,15.38
2018-05-15T05:59:03.299Z,15.50
2018-05-15T06:01:30.918Z,15.58
2018-05-15T06:03:58.558Z,15.66
2018-05-15T06:06:26.171Z,15.72
2018-05-15T06:08:53.847Z,15.79
2018-05-15T06:11:21.511Z,15.87
2018-05-15T06:13:49.151Z,15.96
2018-05-15T06:16:16.766Z,16.06
2018-05-15T06:18:44.407Z,16.18
2018-05-15T06:21:12.022Z,16.28
2018-05-15T06:23:39.670Z,16.35
2018-05-15T06:26:07.382Z,16.38
2018-05-15T06:28:35.019Z,16.42
2018-05-15T06:31:02.635Z,16.44
2018-05-15T06:33:30.270Z,16.47
2018-05-15T06:35:57.931Z,16.53
2018-05-15T06:38:25.596Z,16.60
2018-05-15T06:40:53.259Z,16.71
2018-05-15T06:43:20.968Z,16.82
2018-05-15T06:45:48.547Z,16.93
2018-05-15T06:48:16.337Z,17.10
2018-05-15T06:50:43.959Z,17.29
2018-05-15T06:53:11.599Z,17.46
2018-05-15T06:55:39.214Z,17.63
2018-05-15T06:58:06.880Z,17.78
2018-05-15T07:00:34.559Z,17.90
2018-05-15T07:03:02.217Z,18.00
2018-05-15T07:05:29.878Z,18.10
2018-05-15T07:07:57.495Z,18.21
2018-05-15T07:10:25.136Z,18.36
2018-05-15T07:12:52.770Z,18.52
2018-05-15T07:15:20.406Z,18.65
2018-05-15T07:17:48.184Z,18.80
2018-05-15T07:20:15.823Z,18.95
2018-05-15T07:22:43.448Z,19.09
2018-05-15T07:25:11.089Z,19.21
2018-05-15T07:27:38.703Z,19.34
2018-05-15T07:30:06.336Z,19.46
2018-05-15T07:32:33.948Z,19.56
2018-05-15T07:35:01.575Z,19.65
2018-05-15T07:37:29.222Z,19.74
2018-05-15T07:39:56.951Z,19.85
2018-05-15T07:42:24.611Z,19.95
2018-05-15T07:44:52.274Z,20.04
2018-05-15T07:47:19.887Z,20.14
2018-05-15T07:49:47.603Z,20.23
2018-05-15T07:52:15.263Z,20.28
2018-05-15T07:54:42.927Z,20.30
2018-05-15T07:57:10.591Z,20.37
2018-05-15T07:59:38.237Z,20.42
2018-05-15T08:02:05.972Z,20.46
2018-05-15T08:04:33.679Z,20.49
2018-05-15T08:07:01.295Z,20.49
2018-05-15T08:09:28.942Z,20.52
2018-05-15T08:11:56.565Z,20.58
2018-05-15T08:14:24.226Z,20.67
2018-05-15T08:16:51.867Z,20.76
2018-05-15T08:19:19.550Z,20.82
2018-05-15T08:21:47.219Z,20.88
2018-05-15T08:24:14.836Z,20.94
2018-05-15T08:26:42.535Z,21.00
2018-05-15T08:29:10.203Z,21.08
2018-05-15T08:31:37.838Z,21.10
2018-05-15T08:34:05.447Z,21.19
2018-05-15T08:36:33.079Z,21.28
2018-05-15T08:39:00.843Z,21.36
2018-05-15T08:41:28.480Z,21.43
2018-05-15T08:43:56.098Z,21.46
2018-05-15T08:46:23.732Z,21.53
2018-05-15T08:48:51.778Z,21.62
2018-05-15T08:51:19.419Z,21.69
2018-05-15T08:53:47.130Z,21.74
2018-05-15T08:56:14.763Z,21.82
2018-05-15T08:58:42.374Z,21.90
2018-05-15T09:01:10.002Z,21.99
2018-05-15T09:03:37.680Z,22.11
2018-05-15T09:06:05.350Z,22.20
2018-05-15T09:08:32.963Z,22.25
2018-05-15T09:11:00.600Z,22.27
2018-05-15T09:13:28.330Z,22.31
2018-05-15T09:15:55.966Z,22.35
2018-05-15T09:18:23.653Z,22.41
2018-05-15T09:20:51.319Z,22.44
2018-05-15T09:23:18.930Z,22.52
2018-05-15T09:25:46.644Z,22.63
2018-05-15T09:28:14.256Z,22.73
2018-05-15T09:30:41.966Z,22.79
2018-05-15T09:33:09.603Z,22.86
2018-05-15T09:35:37.286Z,22.93
2018-05-15T09:38:04.955Z,22.97
2018-05-15T09:40:32.618Z,23.01
2018-05-15T09:43:00.256Z,23.03
2018-05-15T09:45:27.890Z,23.07
2018-05-15T09:47:55.523Z,23.12
2018-05-15T09:50:23.131Z,23.16
2018-05-15T09:52:50.774Z,23.22
2018-05-15T09:55:18.391Z,23.33
2018-05-15T09:57:46.027Z,23.42
2018-05-15T10:00:13.648Z,23.50
2018-05-15T10:02:41.375Z,23.56
2018-05-15T10:05:09.039Z,23.60
2018-05-15T10:07:36.716Z,23.66
2018-05-15T10:10:04.354Z,23.74
2018-05-15T10:12:31.990Z,23.77
2018-05-15T10:14:59.610Z,23.75
2018-05-15T10:17:27.346Z,23.74
2018-05-15T10:19:55.033Z,23.73
2018-05-15T10:22:22.663Z,23.74
2018-05-15T10:24:50.298Z,23.70
2018-05-15T10:27:17.998Z,23.68
2018-05-15T10:29:45.635Z,23.70
2018-05-15T10:32:13.331Z,23.73
2018-05-15T10:34:40.988Z,23.71
2018-05-15T10:37:08.602Z,23.66
2018-05-15T10:39:36.305Z,23.59
2018-05-15T10:42:03.915Z,23.52
2018-05-15T10:44:31.634Z,23.46
2018-05-15T10:46:59.243Z,23.43
2018-05-15T10:49:26.962Z,23.46
2018-05-15T10:51:54.622Z,23.49
2018-05-15T10:54:22.257Z,23.55
2018-05-15T10:56:50.045Z,23.60
2018-05-15T10:59:17.678Z,23.65
2018-05-15T11:01:45.290Z,23.71
2018-05-15T11:04:12.927Z,23.80
2018-05-15T11:06:40.599Z,23.90
2018-05-15T11:09:08.879Z,23.92
2018-05-15T11:11:36.546Z,23.91
2018-05-15T11:14:04.186Z,23.98
2018-05-15T11:16:31.799Z,24.11
2018-05-15T11:22:11.631Z,24.27
2018-05-15T11:24:51.276Z,24.24
2018-05-15T11:27:18.936Z,24.23
2018-05-15T11:29:46.604Z,24.23
2018-05-15T11:32:14.211Z,24.28
2018-05-15T11:34:41.843Z,24.30
2018-05-15T11:37:09.456Z,24.35
2018-05-15T11:39:37.147Z,24.35
2018-05-15T11:42:04.778Z,24.35
2018-05-15T11:44:32.391Z,24.35
2018-05-15T11:47:00.135Z,24.37
2018-05-15T11:49:28.437Z,24.40
2018-05-15T11:51:56.158Z,24.45
2018-05-15T11:54:23.057Z,24.50
2018-05-15T11:56:50.691Z,24.55
2018-05-15T11:59:18.302Z,24.56
2018-05-15T12:01:45.958Z,24.55
2018-05-15T12:04:13.570Z,24.55
2018-05-15T12:06:41.203Z,24.55
2018-05-15T12:09:08.905Z,24.58
2018-05-15T12:11:36.466Z,24.58
2018-05-15T12:14:04.078Z,24.57
2018-05-15T12:16:31.778Z,24.54
2018-05-15T12:18:59.391Z,24.47
2018-05-15T12:21:27.031Z,24.42
2018-05-15T12:23:54.763Z,24.34
2018-05-15T12:26:22.431Z,24.29
2018-05-15T12:28:50.043Z,24.23
2018-05-15T12:31:17.758Z,24.18
2018-05-15T12:33:45.359Z,24.14
2018-05-15T12:36:12.986Z,24.12
2018-05-15T12:38:40.599Z,24.11
2018-05-15T12:41:08.299Z,24.13
2018-05-15T12:43:35.906Z,24.16
2018-05-15T12:46:03.570Z,24.22
2018-05-15T12:48:31.328Z,24.28
2018-05-15T12:50:58.945Z,24.33
2018-05-15T12:53:26.574Z,24.41
2018-05-15T12:55:54.187Z,24.46
2018-05-15T12:58:21.818Z,24.50
2018-05-15T13:00:49.426Z,24.55
2018-05-15T13:03:17.067Z,24.61
2018-05-15T13:05:44.776Z,24.66
2018-05-15T13:08:12.491Z,24.68
2018-05-15T13:10:40.105Z,24.75
2018-05-15T13:13:07.742Z,24.80
2018-05-15T13:15:35.582Z,24.79
2018-05-15T13:18:03.220Z,24.78
2018-05-15T13:20:30.903Z,24.73
2018-05-15T13:22:58.532Z,24.72
2018-05-15T13:25:26.147Z,24.67
2018-05-15T13:27:53.779Z,24.64
2018-05-15T13:30:21.386Z,24.64
2018-05-15T13:32:49.015Z,24.59
2018-05-15T13:35:16.681Z,24.55
2018-05-15T13:37:44.321Z,24.52
2018-05-15T13:40:11.994Z,24.43
2018-05-15T13:42:39.623Z,24.37
2018-05-15T13:45:07.323Z,24.33
2018-05-15T13:47:34.959Z,24.34
2018-05-15T13:50:02.571Z,24.35
2018-05-15T13:52:30.405Z,24.32
2018-05-15T13:54:58.011Z,24.37
2018-05-15T13:57:25.666Z,24.39
2018-05-15T13:59:53.278Z,24.46
2018-05-15T14:02:20.891Z,24.50
2018-05-15T14:04:48.519Z,24.57
2018-05-15T14:07:16.131Z,24.56
2018-05-15T14:09:43.762Z,24.53
2018-05-15T14:12:11.375Z,24.45
2018-05-15T14:14:39.064Z,24.31
2018-05-15T14:17:06.730Z,24.19
2018-05-15T14:19:34.395Z,24.05
2018-05-15T14:22:02.010Z,23.92
2018-05-15T14:24:29.647Z,23.82
2018-05-15T14:26:57.279Z,23.76
2018-05-15T14:29:24.933Z,23.71
2018-05-15T14:31:52.602Z,23.64
2018-05-15T14:34:20.271Z,23.58
2018-05-15T14:36:48.023Z,23.49
2018-05-15T14:39:15.654Z,23.39
2018-05-15T14:41:55.032Z,23.27
2018-05-15T14:44:22.775Z,23.15
2018-05-15T14:46:50.394Z,23.04
2018-05-15T14:49:18.119Z,22.90
2018-05-15T14:51:45.735Z,22.72
2018-05-15T14:54:13.449Z,22.57
2018-05-15T14:56:41.059Z,22.44
2018-05-15T14:59:08.711Z,22.29
2018-05-15T15:01:36.426Z,22.19
2018-05-15T15:04:04.087Z,22.13
2018-05-15T15:06:31.723Z,22.08
2018-05-15T15:08:59.525Z,22.00
2018-05-15T15:11:27.187Z,21.93
2018-05-15T15:13:54.796Z,21.85
2018-05-15T15:16:22.432Z,21.77
2018-05-15T15:18:50.046Z,21.70
2018-05-15T15:21:17.686Z,21.62
2018-05-15T15:23:45.379Z,21.55
2018-05-15T15:26:12.950Z,21.44
2018-05-15T15:28:40.559Z,21.32
2018-05-15T15:31:08.199Z,21.25
2018-05-15T15:33:35.830Z,21.17
2018-05-15T15:36:03.467Z,21.10
2018-05-15T15:38:31.163Z,21.04
2018-05-15T15:40:58.799Z,20.97
2018-05-15T15:43:26.419Z,20.91
2018-05-15T15:45:54.150Z,20.86
2018-05-15T15:48:21.767Z,20.84
2018-05-15T15:50:49.414Z,20.82
2018-05-15T15:53:17.039Z,20.79
2018-05-15T15:55:44.704Z,20.77
2018-05-15T15:58:12.318Z,20.74
2018-05-15T16:00:39.994Z,20.68
2018-05-15T16:03:07.687Z,20.62
2018-05-15T16:05:35.326Z,20.53
2018-05-15T16:08:02.959Z,20.46
2018-05-15T16:10:30.571Z,20.40
2018-05-15T16:12:58.211Z,20.32
2018-05-15T16:15:25.894Z,20.24
2018-05-15T16:17:53.575Z,20.14
2018-05-15T16:20:21.179Z,20.03
2018-05-15T16:22:48.850Z,19.94
2018-05-15T16:25:16.456Z,19.86
2018-05-15T16:27:44.106Z,19.78
2018-05-15T16:30:11.723Z,19.70
2018-05-15T16:32:39.386Z,19.62
2018-05-15T16:35:07.003Z,19.56
2018-05-15T16:37:34.704Z,19.47
2018-05-15T16:40:02.295Z,19.36
2018-05-15T16:42:29.979Z,19.28
2018-05-15T16:44:57.644Z,19.23
2018-05-15T16:47:25.291Z,19.19
2018-05-15T16:49:52.936Z,19.12
2018-05-15T16:52:20.622Z,19.06
2018-05-15T16:54:48.291Z,19.00
2018-05-15T16:57:15.956Z,18.94
2018-05-15T16:59:43.615Z,18.87
2018-05-15T17:02:11.279Z,18.80
2018-05-15T17:04:38.899Z,18.73
2018-05-15T17:07:06.534Z,18.67
2018-05-15T17:09:34.166Z,18.63
2018-05-15T17:12:01.828Z,18.59
2018-05-15T17:14:29.672Z,18.52
2018-05-15T17:16:57.455Z,18.43
2018-05-15T17:19:25.119Z,18.32
2018-05-15T17:21:52.738Z,18.22
2018-05-15T17:24:20.452Z,18.11
2018-05-15T17:26:48.072Z,18.00
2018-05-15T17:29:15.718Z,17.93
2018-05-15T17:31:43.330Z,17.89
2018-05-15T17:34:10.971Z,17.85
2018-05-15T17:36:38.583Z,17.84
2018-05-15T17:39:06.223Z,17.81
2018-05-15T17:41:33.838Z,17.78
2018-05-15T17:44:01.476Z,17.75
2018-05-15T17:46:29.099Z,17.73
2018-05-15T17:48:56.735Z,17.68
2018-05-15T17:51:24.354Z,17.65
2018-05-15T17:53:52.082Z,17.60
2018-05-15T17:56:19.699Z,17.54
2018-05-15T17:58:47.338Z,17.48
2018-05-15T18:01:14.951Z,17.43
2018-05-15T18:03:42.630Z,17.35
2018-05-15T18:06:10.242Z,17.29
2018-05-15T18:08:38.036Z,17.24
2018-05-15T18:11:05.611Z,17.16
2018-05-15T18:13:33.251Z,17.08
2018-05-15T18:16:00.867Z,17.00
2018-05-15T18:18:28.503Z,16.90
2018-05-15T18:20:56.121Z,16.80
2018-05-15T18:23:23.832Z,16.73
2018-05-15T18:25:51.449Z,16.66
2018-05-15T18:28:19.155Z,16.58
2018-05-15T18:30:46.771Z,16.52
2018-05-15T18:33:14.397Z,16.47
2018-05-15T18:35:42.143Z,16.44
2018-05-15T18:38:09.812Z,16.40
2018-05-15T18:40:37.453Z,16.37
2018-05-15T18:43:05.074Z,16.34
2018-05-15T18:45:32.715Z,16.32
2018-05-15T18:48:00.351Z,16.29
2018-05-15T18:50:27.995Z,16.27
2018-05-15T18:52:55.611Z,16.23
2018-05-15T18:55:23.250Z,16.20
2018-05-15T18:57:50.867Z,16.16
2018-05-15T19:00:18.516Z,16.15
2018-05-15T19:02:46.223Z,16.13
2018-05-15T19:05:13.887Z,16.10
2018-05-15T19:07:41.555Z,16.10
2018-05-15T19:10:09.306Z,16.10
2018-05-15T19:12:36.918Z,16.11
2018-05-15T19:15:04.563Z,16.09
2018-05-15T19:17:32.180Z,16.05
2018-05-15T19:19:59.860Z,16.01
2018-05-15T19:22:27.527Z,15.98
2018-05-15T19:24:55.176Z,15.96
2018-05-15T19:27:22.795Z,15.94
2018-05-15T19:29:50.439Z,15.91
2018-05-15T19:32:18.062Z,15.87
2018-05-15T19:34:51.439Z,15.83
2018-05-15T19:37:19.059Z,15.81
2018-05-15T19:39:46.694Z,15.77
2018-05-15T19:42:14.310Z,15.73
2018-05-15T19:44:42.019Z,15.69
2018-05-15T19:47:09.678Z,15.66
2018-05-15T19:49:37.301Z,15.63
2018-05-15T19:52:05.046Z,15.59
2018-05-15T19:54:32.646Z,15.54
2018-05-15T19:57:00.328Z,15.50
2018-05-15T19:59:27.946Z,15.48
2018-05-15T20:01:55.672Z,15.43
2018-05-15T20:04:23.226Z,15.40
2018-05-15T20:06:50.863Z,15.37
2018-05-15T20:09:18.536Z,15.33
2018-05-15T20:11:46.207Z,15.30
2018-05-15T20:14:13.863Z,15.28
2018-05-15T20:16:41.528Z,15.26
2018-05-15T20:19:09.143Z,15.23
2018-05-15T20:21:36.779Z,15.18
2018-05-15T20:24:04.410Z,15.14
2018-05-15T20:26:32.074Z,15.08
2018-05-15T20:28:59.735Z,15.02
2018-05-15T20:31:27.357Z,14.95
2018-05-15T20:33:55.058Z,14.88
2018-05-15T20:36:22.703Z,14.81
2018-05-15T20:38:50.321Z,14.73
2018-05-15T20:41:17.959Z,14.66
2018-05-15T20:43:45.578Z,14.61
2018-05-15T20:46:13.579Z,14.55
2018-05-15T20:48:41.198Z,14.51
2018-05-15T20:51:08.842Z,14.47
2018-05-15T20:53:36.467Z,14.44
2018-05-15T20:56:04.231Z,14.41
2018-05-15T20:58:31.842Z,14.38
2018-05-15T21:00:59.454Z,14.34
2018-05-15T21:03:27.095Z,14.30
2018-05-15T21:05:54.775Z,14.26
2018-05-15T21:08:22.419Z,14.23
2018-05-15T21:10:50.040Z,14.21
2018-05-15T21:13:17.682Z,14.19
2018-05-15T21:15:45.294Z,14.19
2018-05-15T21:18:12.991Z,14.18
2018-05-15T21:20:40.650Z,14.17
2018-05-15T21:23:08.315Z,14.16
2018-05-15T21:25:36.067Z,14.13
2018-05-15T21:28:03.702Z,14.14
2018-05-15T21:30:31.315Z,14.14
2018-05-15T21:32:59.062Z,14.15
2018-05-15T21:35:26.731Z,14.15
2018-05-15T21:37:54.369Z,14.16
2018-05-15T21:40:22.059Z,14.16
2018-05-15T21:42:49.694Z,14.18
2018-05-15T21:45:17.376Z,14.19
2018-05-15T21:47:45.019Z,14.19
2018-05-15T21:50:12.635Z,14.18
2018-05-15T21:52:40.273Z,14.15
2018-05-15T21:55:07.912Z,14.10
2018-05-15T21:57:35.576Z,14.07
2018-05-15T22:00:03.192Z,14.03
2018-05-15T22:02:30.830Z,13.99
2018-05-15T22:04:58.452Z,13.96
2018-05-15T22:07:26.094Z,13.91
2018-05-15T22:09:53.800Z,13.86
2018-05-15T22:12:33.111Z,13.82
2018-05-15T22:15:12.570Z,13.78
2018-05-15T22:17:51.944Z,13.73
2018-05-15T22:20:31.512Z,13.69
2018-05-15T22:22:58.571Z,13.67
2018-05-15T22:25:26.191Z,13.66
2018-05-15T22:27:53.846Z,13.64
2018-05-15T22:30:21.462Z,13.63
2018-05-15T22:32:49.078Z,13.60
2018-05-15T22:35:16.718Z,13.57
2018-05-15T22:37:44.367Z,13.55
2018-05-15T22:40:12.034Z,13.53
2018-05-15T22:42:39.659Z,13.51
2018-05-15T22:45:07.354Z,13.51
2018-05-15T22:47:34.968Z,13.50
2018-05-15T22:50:02.607Z,13.50
2018-05-15T22:52:30.855Z,13.50
2018-05-15T22:54:58.496Z,13.48
2018-05-15T22:57:26.114Z,13.48
2018-05-15T22:59:53.842Z,13.46
2018-05-15T23:02:21.460Z,13.45
2018-05-15T23:04:49.098Z,13.44
2018-05-15T23:07:16.718Z,13.45
2018-05-15T23:09:44.392Z,13.44
2018-05-15T23:12:12.006Z,13.45
2018-05-15T23:14:39.647Z,13.46
2018-05-15T23:17:07.266Z,13.46
2018-05-15T23:19:34.936Z,13.45
2018-05-15T23:22:02.600Z,13.44
2018-05-15T23:24:30.252Z,13.42
2018-05-15T23:26:57.926Z,13.41
2018-05-15T23:29:25.705Z,13.40
2018-05-15T23:31:53.251Z,13.39
2018-05-15T23:34:20.925Z,13.37
2018-05-15T23:36:48.574Z,13.36
2018-05-15T23:39:16.188Z,13.33
2018-05-15T23:41:43.839Z,13.31
2018-05-15T23:44:11.459Z,13.30
2018-05-15T23:46:39.123Z,13.27
2018-05-15T23:49:06.743Z,13.27
2018-05-15T23:51:34.447Z,13.26
2018-05-15T23:54:02.106Z,13.24
2018-05-15T23:56:29.747Z,13.22
2018-05-15T23:58:57.366Z,13.20
